Time;durP1;ratioP1;P1;durP2;ratioP2;P2;SDS_P1;SDS_P2;PMS_P1;PMS_P2;Temp;Humidity;BMP_temperature;BMP_pressure;BME280_temperature;BME280_humidity;BME280_pressure;Samples;Min_cycle;Max_cycle;Signal;HPM_P1;HPM_P2
2022/08/10 00:00:56;;;;;;;2.00;1.60;;;21.10;47.10;;;;;;5033372;28;20029;-72
2022/08/10 00:03:22;;;;;;;2.92;1.80;;;21.10;47.00;;;;;;5033890;28;20049;-71
2022/08/10 00:05:48;;;;;;;2.22;1.40;;;21.10;46.90;;;;;;5034150;28;20392;-72
2022/08/10 00:08:15;;;;;;;2.20;1.48;;;21.00;47.00;;;;;;5021062;28;20565;-72
2022/08/10 00:10:40;;;;;;;2.95;1.40;;;21.00;47.30;;;;;;5053565;28;20052;-70
2022/08/10 00:13:06;;;;;;;2.22;1.27;;;20.90;47.30;;;;;;5053386;28;20059;-71
2022/08/10 00:15:35;;;;;;;1.65;1.35;;;20.90;47.40;;;;;;5047614;28;20560;-71
2022/08/10 00:18:01;;;;;;;4.93;1.60;;;20.90;47.10;;;;;;5033163;28;20043;-71
2022/08/10 00:20:26;;;;;;;2.80;1.60;;;20.90;47.30;;;;;;5032671;28;20049;-71
2022/08/10 00:22:52;;;;;;;1.90;1.55;;;20.90;47.60;;;;;;5033330;28;20556;-71
2022/08/10 00:25:18;;;;;;;2.17;1.40;;;20.80;47.60;;;;;;5033355;28;20483;-70
2022/08/10 00:27:44;;;;;;;2.78;1.70;;;20.80;47.80;;;;;;5032040;28;20388;-71
2022/08/10 00:30:10;;;;;;;3.28;1.60;;;20.80;47.60;;;;;;5033225;28;20030;-70
2022/08/10 00:32:36;;;;;;;5.28;1.52;;;20.80;47.70;;;;;;5033174;28;20021;-72
2022/08/10 00:35:02;;;;;;;2.78;1.80;;;20.80;47.30;;;;;;5033663;28;20487;-71
2022/08/10 00:37:28;;;;;;;2.33;1.45;;;20.80;47.50;;;;;;5032336;28;20057;-70
2022/08/10 00:39:53;;;;;;;4.95;1.40;;;20.80;47.40;;;;;;5032894;28;20483;-71
2022/08/10 00:42:19;;;;;;;2.78;1.60;;;20.80;47.00;;;;;;5015375;28;20091;-70
2022/08/10 00:44:48;;;;;;;3.17;1.40;;;20.80;47.70;;;;;;5033192;28;20063;-71
2022/08/10 00:47:17;;;;;;;3.28;1.42;;;20.80;46.90;;;;;;5015403;28;20059;-71
2022/08/10 00:49:42;;;;;;;2.65;1.40;;;20.80;46.90;;;;;;5033061;28;20101;-71
2022/08/10 00:52:12;;;;;;;8.52;1.80;;;20.90;46.90;;;;;;5032449;28;20088;-71
2022/08/10 00:54:39;;;;;;;3.40;1.50;;;20.80;47.00;;;;;;5032986;28;20048;-71
2022/08/10 00:57:04;;;;;;;3.38;1.40;;;20.90;46.70;;;;;;5032923;28;20021;-70
2022/08/10 00:59:34;;;;;;;1.98;1.75;;;20.90;46.90;;;;;;5032878;28;20391;-70
2022/08/10 01:02:00;;;;;;;2.28;1.50;;;20.90;47.10;;;;;;5032725;28;20360;-71
2022/08/10 01:04:26;;;;;;;1.83;1.30;;;20.90;47.10;;;;;;5044666;28;20036;-70
2022/08/10 01:07:25;;;;;;;2.65;1.42;;;20.80;47.10;;;;;;5052510;28;20234;-71
2022/08/10 01:10:09;;;;;;;1.65;1.40;;;20.80;47.00;;;;;;5047617;28;20057;-71
2022/08/10 01:12:59;;;;;;;1.80;1.50;;;20.70;47.10;;;;;;5023680;28;20037;-71
2022/08/10 01:15:35;;;;;;;6.63;1.15;;;20.70;47.10;;;;;;5032343;28;20312;-70
2022/08/10 01:18:12;;;;;;;2.22;1.13;;;20.60;47.10;;;;;;5032415;28;20036;-71
2022/08/10 01:20:57;;;;;;;1.98;1.20;;;20.60;47.20;;;;;;5032124;28;20147;-71
2022/08/10 01:23:57;;;;;;;4.05;1.45;;;20.50;47.40;;;;;;5032217;28;20041;-71
2022/08/10 01:26:47;;;;;;;1.55;1.23;;;20.40;47.50;;;;;;5032153;28;20021;-71
2022/08/10 01:29:35;;;;;;;2.65;1.20;;;20.40;47.70;;;;;;5028608;28;20034;-70
2022/08/10 01:32:05;;;;;;;1.40;1.13;;;20.30;47.70;;;;;;5002413;28;20330;-71
2022/08/10 01:34:40;;;;;;;1.85;1.20;;;20.30;48.00;;;;;;5044897;28;20021;-71
2022/08/10 01:37:12;;;;;;;2.22;1.48;;;20.30;48.10;;;;;;5051741;28;20021;-70
2022/08/10 01:39:45;;;;;;;3.10;1.23;;;20.20;48.40;;;;;;5051970;28;20025;-71
2022/08/10 01:42:15;;;;;;;4.72;1.52;;;20.20;48.70;;;;;;5051764;28;20028;-71
2022/08/10 01:45:03;;;;;;;4.82;1.60;;;20.10;48.70;;;;;;5043950;28;20360;-70
2022/08/10 01:50:18;;;;;;;2.85;1.35;;;20.10;48.90;;;;;;5034566;28;20028;-71
2022/08/10 01:52:47;;;;;;;6.60;1.58;;;20.10;48.90;;;;;;5035968;28;20021;-71
2022/08/10 01:55:15;;;;;;;3.30;1.40;;;20.10;49.20;;;;;;5035895;28;20386;-71
2022/08/10 01:57:44;;;;;;;4.40;1.25;;;20.00;49.30;;;;;;5035866;28;20475;-70
2022/08/10 02:00:11;;;;;;;2.55;1.33;;;20.00;49.40;;;;;;5035820;28;20022;-71
2022/08/10 02:02:40;;;;;;;1.67;1.35;;;20.00;49.50;;;;;;5017242;28;20064;-71
2022/08/10 02:05:07;;;;;;;5.20;1.48;;;20.00;49.60;;;;;;5055700;28;20470;-70
2022/08/10 02:07:36;;;;;;;2.90;1.58;;;20.00;49.70;;;;;;5055743;28;20029;-71
2022/08/10 02:10:05;;;;;;;3.03;1.42;;;19.90;49.60;;;;;;5054332;28;20504;-71
2022/08/10 02:12:34;;;;;;;1.90;1.45;;;19.90;49.60;;;;;;5051664;28;20062;-71
2022/08/10 02:15:04;;;;;;;5.70;1.83;;;19.90;49.80;;;;;;5035637;28;20057;-70
2022/08/10 02:17:35;;;;;;;3.25;1.58;;;19.80;49.80;;;;;;5035435;28;20021;-70
2022/08/10 02:20:21;;;;;;;2.90;1.63;;;19.80;49.70;;;;;;5035633;28;20045;-70
2022/08/10 02:22:51;;;;;;;4.00;1.30;;;19.80;49.80;;;;;;5035697;28;20084;-70
2022/08/10 02:25:20;;;;;;;7.45;1.48;;;19.80;49.90;;;;;;5035678;28;20044;-70
2022/08/10 02:27:47;;;;;;;2.47;1.23;;;19.80;49.90;;;;;;5035608;28;20112;-71
2022/08/10 02:30:13;;;;;;;1.60;1.40;;;19.80;50.00;;;;;;5035566;28;20475;-71
2022/08/10 02:32:40;;;;;;;7.32;1.75;;;19.80;50.10;;;;;;5035416;28;20043;-70
2022/08/10 02:35:12;;;;;;;3.55;1.45;;;19.80;50.20;;;;;;5041957;28;20113;-71
2022/08/10 02:37:39;;;;;;;4.78;1.77;;;19.70;50.30;;;;;;5035643;28;20108;-71
2022/08/10 02:40:06;;;;;;;2.83;1.58;;;19.70;50.40;;;;;;5035523;28;20021;-71
2022/08/10 02:42:49;;;;;;;7.93;1.63;;;19.70;50.40;;;;;;5035324;28;20032;-71
2022/08/10 02:45:21;;;;;;;2.38;1.60;;;19.70;50.40;;;;;;5035811;28;20045;-71
2022/08/10 02:47:50;;;;;;;2.17;1.40;;;19.60;50.50;;;;;;5035564;28;20487;-71
2022/08/10 02:50:16;;;;;;;4.82;1.48;;;19.70;50.70;;;;;;5035370;28;20048;-71
2022/08/10 02:52:53;;;;;;;5.53;1.70;;;19.60;50.80;;;;;;5034813;28;20021;-71
2022/08/10 02:55:26;;;;;;;3.28;1.48;;;19.60;50.90;;;;;;5035335;28;20087;-71
2022/08/10 02:57:56;;;;;;;4.63;1.10;;;19.60;51.10;;;;;;5035150;28;20030;-70
2022/08/10 03:00:23;;;;;;;2.30;1.58;;;19.60;51.00;;;;;;5034568;28;20347;-70
2022/08/10 03:02:50;;;;;;;2.97;1.60;;;19.60;51.10;;;;;;5034749;28;20056;-71
2022/08/10 03:05:18;;;;;;;2.70;1.60;;;19.60;51.50;;;;;;5054432;28;20078;-70
2022/08/10 03:07:59;;;;;;;5.10;1.50;;;19.50;51.60;;;;;;5054837;28;20052;-71
2022/08/10 03:10:29;;;;;;;3.05;1.65;;;19.50;51.70;;;;;;5048358;28;20025;-71
2022/08/10 03:12:59;;;;;;;3.75;1.58;;;19.50;51.60;;;;;;5034600;28;20053;-71
2022/08/10 03:15:27;;;;;;;2.13;1.48;;;19.50;51.80;;;;;;5035129;28;20029;-70
2022/08/10 03:17:55;;;;;;;5.00;1.85;;;19.50;52.00;;;;;;5034664;28;20498;-71
2022/08/10 03:20:23;;;;;;;3.20;1.65;;;19.50;52.20;;;;;;5033302;28;20096;-70
2022/08/10 03:22:50;;;;;;;2.13;1.50;;;19.50;52.10;;;;;;5034472;28;20104;-70
2022/08/10 03:25:19;;;;;;;9.10;1.38;;;19.40;52.10;;;;;;5035450;28;20483;-70
2022/08/10 03:27:47;;;;;;;2.90;1.80;;;19.40;52.00;;;;;;5034393;28;20053;-71
2022/08/10 03:30:13;;;;;;;2.63;1.40;;;19.40;51.80;;;;;;5034264;28;20056;-71
2022/08/10 03:32:41;;;;;;;3.97;1.40;;;19.40;52.00;;;;;;5034462;28;20061;-71
2022/08/10 03:35:08;;;;;;;4.55;1.70;;;19.40;52.00;;;;;;5016627;28;20036;-71
2022/08/10 03:37:35;;;;;;;2.72;1.67;;;19.40;52.00;;;;;;5034310;28;20028;-71
2022/08/10 03:40:00;;;;;;;6.13;1.70;;;19.30;52.00;;;;;;5034280;28;20400;-71
2022/08/10 03:42:28;;;;;;;2.83;1.73;;;19.30;52.20;;;;;;5034130;28;20108;-70
2022/08/10 03:44:56;;;;;;;3.20;1.60;;;19.30;51.90;;;;;;5015679;28;20079;-71
2022/08/10 03:47:23;;;;;;;4.13;1.60;;;19.30;52.00;;;;;;5016479;28;20236;-70
2022/08/10 03:49:50;;;;;;;3.15;1.83;;;19.30;52.20;;;;;;5034183;28;20064;-71
2022/08/10 03:52:17;;;;;;;4.80;1.50;;;19.30;52.40;;;;;;5034089;28;20096;-70
2022/08/10 03:54:44;;;;;;;3.47;1.50;;;19.30;52.20;;;;;;5048319;28;20083;-71
2022/08/10 03:57:11;;;;;;;4.70;1.70;;;19.30;52.20;;;;;;5053911;28;20021;-71
2022/08/10 03:59:37;;;;;;;3.78;1.77;;;19.30;52.20;;;;;;5053895;28;20078;-71
2022/08/10 04:02:05;;;;;;;14.85;2.55;;;19.30;52.50;;;;;;5045017;28;20025;-70
2022/08/10 04:04:32;;;;;;;2.75;2.28;;;19.30;52.70;;;;;;5033879;28;20071;-70
2022/08/10 04:06:59;;;;;;;2.60;1.30;;;19.30;52.50;;;;;;5033714;28;20112;-71
2022/08/10 04:09:29;;;;;;;4.65;1.75;;;19.30;52.40;;;;;;5033590;28;20475;-70
2022/08/10 04:11:55;;;;;;;5.00;1.60;;;19.30;52.50;;;;;;5033455;28;20033;-70
2022/08/10 04:14:21;;;;;;;2.67;1.40;;;19.30;52.50;;;;;;5033600;28;20030;-70
2022/08/10 04:16:47;;;;;;;3.10;1.50;;;19.20;52.50;;;;;;5033615;28;20495;-70
2022/08/10 04:19:16;;;;;;;3.17;1.92;;;19.20;52.60;;;;;;5033022;28;20136;-71
2022/08/10 04:21:46;;;;;;;4.82;1.90;;;19.30;52.70;;;;;;5033440;28;20033;-70
2022/08/10 04:24:20;;;;;;;5.57;2.08;;;19.30;52.80;;;;;;5025626;28;20027;-71
2022/08/10 04:26:46;;;;;;;5.93;2.17;;;19.20;53.00;;;;;;5035373;28;20036;-71
2022/08/10 04:29:13;;;;;;;7.88;3.60;;;19.30;53.00;;;;;;5053253;28;20017;-71
2022/08/10 04:31:42;;;;;;;2.97;2.13;;;19.30;53.00;;;;;;5053150;28;20028;-71
2022/08/10 04:34:09;;;;;;;4.35;1.58;;;19.30;52.90;;;;;;5049200;28;20112;-70
2022/08/10 04:36:35;;;;;;;3.60;2.15;;;19.30;53.10;;;;;;5013674;28;20030;-71
2022/08/10 04:39:01;;;;;;;3.60;1.65;;;19.40;53.20;;;;;;5013456;28;20030;-70
2022/08/10 04:41:27;;;;;;;4.32;1.48;;;19.40;53.50;;;;;;5013302;28;20080;-71
2022/08/10 04:43:53;;;;;;;4.90;1.50;;;19.40;53.20;;;;;;5013305;28;20026;-71
2022/08/10 04:46:19;;;;;;;2.28;1.50;;;19.50;53.50;;;;;;5013327;28;20538;-71
2022/08/10 04:48:44;;;;;;;7.03;1.88;;;19.60;53.60;;;;;;5013359;28;20044;-71
2022/08/10 04:51:15;;;;;;;9.52;2.05;;;19.60;53.50;;;;;;5013598;28;20026;-71
2022/08/10 04:53:41;;;;;;;3.50;1.60;;;19.70;53.50;;;;;;5037961;28;20017;-71
2022/08/10 04:56:07;;;;;;;2.83;1.75;;;19.70;53.40;;;;;;5052087;28;20562;-71
2022/08/10 04:58:34;;;;;;;6.15;1.45;;;19.80;53.30;;;;;;5052707;28;20021;-71
2022/08/10 05:01:00;;;;;;;5.38;1.63;;;19.90;53.30;;;;;;5052833;28;20013;-71
2022/08/10 05:03:26;;;;;;;7.47;1.83;;;19.90;53.50;;;;;;5052673;28;20028;-71
2022/08/10 05:05:51;;;;;;;2.53;1.33;;;20.00;53.50;;;;;;5052590;28;20025;-71
2022/08/10 05:08:17;;;;;;;6.47;1.73;;;20.10;54.00;;;;;;5048823;28;20463;-70
2022/08/10 05:10:43;;;;;;;7.00;1.48;;;20.10;53.30;;;;;;5026445;28;20060;-71
2022/08/10 05:13:09;;;;;;;4.50;2.60;;;20.20;53.50;;;;;;5032475;28;20057;-71
2022/08/10 05:15:35;;;;;;;4.53;1.73;;;20.30;53.30;;;;;;5032685;28;20395;-72
2022/08/10 05:18:00;;;;;;;8.65;2.40;;;20.30;53.20;;;;;;5032618;28;20052;-71
2022/08/10 05:20:26;;;;;;;11.60;2.13;;;20.40;53.20;;;;;;5032290;28;20406;-70
2022/08/10 05:22:52;;;;;;;7.35;1.92;;;20.50;53.10;;;;;;5018435;28;20068;-70
2022/08/10 05:25:19;;;;;;;12.68;1.80;;;20.60;53.00;;;;;;5049230;28;20028;-71
2022/08/10 05:27:46;;;;;;;5.68;2.17;;;20.70;52.80;;;;;;5042565;28;20022;-70
2022/08/10 05:30:20;;;;;;;3.45;1.77;;;20.70;52.80;;;;;;5031573;28;20034;-70
2022/08/10 05:32:46;;;;;;;3.55;1.67;;;20.70;52.70;;;;;;5039204;28;20025;-71
2022/08/10 05:35:12;;;;;;;5.70;1.80;;;20.80;52.70;;;;;;5049408;28;20029;-71
2022/08/10 05:37:39;;;;;;;5.28;1.85;;;20.90;52.60;;;;;;5014611;28;20387;-71
2022/08/10 05:40:06;;;;;;;4.07;1.50;;;21.00;52.50;;;;;;5031415;28;20026;-71
2022/08/10 05:42:33;;;;;;;4.43;1.90;;;21.00;52.40;;;;;;5043334;28;20021;-71
2022/08/10 05:44:59;;;;;;;2.88;1.63;;;21.10;52.50;;;;;;5032223;28;20107;-71
2022/08/10 05:47:25;;;;;;;15.57;2.20;;;21.10;52.40;;;;;;5050596;28;20079;-69
2022/08/10 05:49:54;;;;;;;2.78;1.58;;;21.20;52.50;;;;;;5028297;28;20483;-69
2022/08/10 05:52:20;;;;;;;3.65;1.90;;;21.20;52.50;;;;;;5032080;28;20136;-70
2022/08/10 05:54:46;;;;;;;5.65;2.22;;;21.30;52.50;;;;;;5030387;28;20087;-71
2022/08/10 05:57:15;;;;;;;4.28;1.90;;;21.40;52.50;;;;;;5029454;28;20029;-69
2022/08/10 05:59:48;;;;;;;7.05;1.60;;;21.40;52.20;;;;;;5031644;28;20024;-71
2022/08/10 06:02:24;;;;;;;5.83;1.67;;;21.40;51.30;;;;;;5029074;28;20024;-71
2022/08/10 06:04:52;;;;;;;8.77;2.13;;;21.50;50.50;;;;;;5014539;28;20323;-70
2022/08/10 06:07:20;;;;;;;5.75;1.50;;;21.60;50.50;;;;;;5032127;28;20450;-69
2022/08/10 06:09:48;;;;;;;7.32;1.92;;;21.70;50.70;;;;;;5027720;28;20025;-69
2022/08/10 06:12:15;;;;;;;2.40;1.58;;;21.80;50.80;;;;;;5029826;28;20037;-70
2022/08/10 06:15:01;;;;;;;3.00;1.58;;;21.80;50.60;;;;;;5032021;28;20094;-69
2022/08/10 06:17:30;;;;;;;4.68;2.00;;;21.90;49.80;;;;;;5032142;28;20022;-69
2022/08/10 06:19:58;;;;;;;2.85;1.52;;;22.00;49.60;;;;;;5031426;28;20046;-70
2022/08/10 06:22:26;;;;;;;4.28;1.60;;;22.10;49.60;;;;;;5031978;28;20538;-71
2022/08/10 06:24:54;;;;;;;3.42;1.63;;;22.20;49.40;;;;;;5041498;28;20544;-70
2022/08/10 06:27:20;;;;;;;5.38;1.88;;;22.20;48.20;;;;;;5013494;28;20391;-70
2022/08/10 06:29:48;;;;;;;4.03;1.83;;;22.30;48.30;;;;;;5031977;28;20032;-68
2022/08/10 06:32:15;;;;;;;7.22;2.13;;;22.40;47.90;;;;;;5032039;28;20026;-69
2022/08/10 06:34:49;;;;;;;6.50;1.95;;;22.50;47.20;;;;;;5031158;28;20039;-69
2022/08/10 06:37:18;;;;;;;9.82;2.53;;;22.60;47.50;;;;;;5034958;28;20032;-71
2022/08/10 06:39:44;;;;;;;3.38;1.90;;;22.70;46.90;;;;;;5032816;28;20032;-71
2022/08/10 06:42:31;;;;;;;4.22;1.80;;;22.80;46.30;;;;;;5040796;28;20030;-71
2022/08/10 06:44:59;;;;;;;4.30;1.58;;;22.80;45.60;;;;;;5055531;28;20017;-69
2022/08/10 06:47:45;;;;;;;3.10;1.67;;;22.90;46.20;;;;;;5055305;28;20021;-71
2022/08/10 06:50:19;;;;;;;5.38;2.25;;;23.00;45.30;;;;;;5021672;28;20017;-71
2022/08/10 06:52:47;;;;;;;7.53;1.63;;;23.10;45.40;;;;;;5035194;28;20024;-69
2022/08/10 06:55:14;;;;;;;7.95;1.88;;;23.20;45.50;;;;;;5035404;28;20021;-70
2022/08/10 06:57:41;;;;;;;2.95;1.25;;;23.30;45.30;;;;;;5035201;28;20025;-71
2022/08/10 07:00:08;;;;;;;4.50;1.85;;;23.40;45.40;;;;;;5035276;28;20025;-70
2022/08/10 07:02:43;;;;;;;6.10;1.80;;;23.50;45.80;;;;;;5035300;28;20021;-71
2022/08/10 07:05:14;;;;;;;5.18;1.70;;;23.60;44.70;;;;;;5035053;28;20029;-71
2022/08/10 07:07:43;;;;;;;3.63;1.67;;;23.60;44.80;;;;;;5035568;28;20029;-71
2022/08/10 07:10:10;;;;;;;9.18;1.55;;;23.70;44.60;;;;;;5034868;28;20022;-70
2022/08/10 07:12:37;;;;;;;2.67;1.60;;;23.80;44.90;;;;;;5034081;28;20079;-70
2022/08/10 07:15:05;;;;;;;3.58;1.48;;;23.90;43.70;;;;;;5035091;28;20033;-71
2022/08/10 07:17:32;;;;;;;4.97;1.98;;;24.00;43.90;;;;;;5035124;28;20398;-71
2022/08/10 07:20:00;;;;;;;4.75;2.20;;;24.00;44.00;;;;;;5034669;28;20067;-71
2022/08/10 07:22:30;;;;;;;4.57;1.52;;;24.10;44.00;;;;;;5034867;28;20052;-71
2022/08/10 07:24:58;;;;;;;3.05;1.63;;;24.10;43.60;;;;;;5051526;28;20017;-69
2022/08/10 07:27:25;;;;;;;4.75;1.52;;;24.20;43.70;;;;;;5054586;28;20103;-69
2022/08/10 07:29:53;;;;;;;2.53;1.50;;;24.20;43.20;;;;;;5054783;28;20507;-69
2022/08/10 07:32:21;;;;;;;4.40;2.08;;;24.30;43.50;;;;;;5036678;28;20067;-70
2022/08/10 07:34:52;;;;;;;5.60;1.98;;;24.30;43.10;;;;;;5034711;28;20045;-69
2022/08/10 07:37:19;;;;;;;4.70;2.10;;;24.40;43.30;;;;;;5034399;28;20029;-70
2022/08/10 07:39:48;;;;;;;1.95;1.50;;;24.40;43.20;;;;;;5016439;28;20022;-71
2022/08/10 07:42:18;;;;;;;3.88;2.22;;;24.50;43.10;;;;;;5034123;28;20471;-73
2022/08/10 07:44:45;;;;;;;4.32;2.22;;;24.50;41.90;;;;;;5034349;28;20055;-71
2022/08/10 07:47:16;;;;;;;4.82;2.08;;;24.50;42.60;;;;;;5033671;28;20040;-72
2022/08/10 07:49:44;;;;;;;5.50;2.70;;;24.60;42.20;;;;;;5033749;28;20471;-71
2022/08/10 07:52:10;;;;;;;8.52;2.75;;;24.70;41.80;;;;;;5034227;28;20083;-73
2022/08/10 07:54:46;;;;;;;5.53;2.65;;;24.70;42.00;;;;;;5029835;28;20028;-70
2022/08/10 07:57:18;;;;;;;6.75;2.38;;;24.70;41.60;;;;;;5053797;28;20029;-72
2022/08/10 07:59:49;;;;;;;5.45;2.13;;;24.70;41.60;;;;;;5054196;28;20025;-70
2022/08/10 08:02:49;;;;;;;6.65;2.33;;;24.80;41.80;;;;;;5054024;28;20025;-70
2022/08/10 08:05:16;;;;;;;4.38;2.28;;;24.80;41.90;;;;;;5014703;28;20116;-70
2022/08/10 08:07:44;;;;;;;5.88;2.70;;;24.90;41.80;;;;;;5033516;28;20482;-73
2022/08/10 08:10:11;;;;;;;8.65;3.25;;;24.90;42.00;;;;;;5034060;28;20017;-70
2022/08/10 08:12:39;;;;;;;7.28;2.72;;;25.00;41.30;;;;;;5016245;28;20071;-71
2022/08/10 08:15:08;;;;;;;6.35;3.13;;;25.00;40.80;;;;;;5016221;28;20383;-70
2022/08/10 08:17:34;;;;;;;7.28;2.50;;;25.00;41.20;;;;;;5033839;28;20104;-72
2022/08/10 08:20:02;;;;;;;7.30;3.20;;;25.10;41.40;;;;;;5033634;28;20071;-69
2022/08/10 08:22:28;;;;;;;5.13;2.58;;;25.20;40.90;;;;;;5033729;28;20051;-69
2022/08/10 08:24:56;;;;;;;8.85;2.85;;;25.30;40.80;;;;;;5039536;28;20057;-72
2022/08/10 08:27:23;;;;;;;5.95;2.53;;;25.30;40.70;;;;;;5033677;28;20475;-70
2022/08/10 08:29:51;;;;;;;5.95;2.22;;;25.30;40.60;;;;;;5015970;28;20104;-70
2022/08/10 08:32:21;;;;;;;4.95;1.90;;;25.40;41.10;;;;;;5041064;28;20112;-70
2022/08/10 08:34:48;;;;;;;7.47;2.95;;;25.50;41.10;;;;;;5053481;28;20024;-70
2022/08/10 08:37:17;;;;;;;5.93;2.22;;;25.50;40.90;;;;;;5035381;28;20025;-72
2022/08/10 08:39:44;;;;;;;12.90;2.78;;;25.60;40.90;;;;;;5053378;28;20428;-71
2022/08/10 08:42:28;;;;;;;6.68;3.05;;;25.70;40.50;;;;;;5032538;28;20483;-71
2022/08/10 08:44:54;;;;;;;;;;;25.70;40.10;;;;;;5014216;28;20092;-71
2022/08/10 08:47:44;;;;;;;10.05;3.17;;;25.80;41.00;;;;;;5013560;28;20358;-70
2022/08/10 08:50:24;;;;;;;8.75;2.85;;;25.80;40.40;;;;;;5028806;28;20014;-71
2022/08/10 08:53:01;;;;;;;8.70;3.15;;;25.90;40.10;;;;;;5013585;28;20030;-70
2022/08/10 08:55:27;;;;;;;7.78;3.53;;;26.00;39.90;;;;;;5013506;28;20026;-71
2022/08/10 08:58:07;;;;;;;5.80;2.90;;;26.00;39.50;;;;;;5013684;28;20025;-72
2022/08/10 09:00:42;;;;;;;11.48;3.10;;;26.00;39.90;;;;;;5029976;28;20061;-70
2022/08/10 09:03:26;;;;;;;11.27;3.30;;;26.10;39.80;;;;;;5032822;28;20467;-71
2022/08/10 09:06:05;;;;;;;8.88;2.90;;;26.10;40.50;;;;;;5032919;28;20025;-69
2022/08/10 09:08:46;;;;;;;7.53;3.20;;;26.10;39.70;;;;;;5032922;28;20110;-70
2022/08/10 09:11:18;;;;;;;10.93;2.90;;;26.20;39.40;;;;;;5015248;28;20514;-70
2022/08/10 09:13:59;;;;;;;7.03;2.83;;;26.30;39.40;;;;;;5032868;28;20475;-70
2022/08/10 09:16:40;;;;;;;7.10;3.05;;;26.30;39.20;;;;;;5031204;28;20025;-70
2022/08/10 09:19:16;;;;;;;6.55;2.60;;;26.40;39.10;;;;;;5032695;28;20032;-72
2022/08/10 09:21:46;;;;;;;9.13;2.53;;;26.40;39.10;;;;;;5032677;28;20064;-68
2022/08/10 09:24:26;;;;;;;5.63;2.40;;;26.40;38.50;;;;;;5031057;28;20091;-71
2022/08/10 09:26:55;;;;;;;6.05;2.47;;;26.50;38.30;;;;;;5032598;28;20049;-70
2022/08/10 09:29:31;;;;;;;9.43;2.05;;;26.50;37.90;;;;;;5031431;28;20499;-68
2022/08/10 09:32:09;;;;;;;5.40;2.10;;;26.50;38.00;;;;;;5032151;28;20037;-71
2022/08/10 09:34:56;;;;;;;5.88;2.70;;;26.60;38.00;;;;;;5032679;28;20442;-69
2022/08/10 09:37:55;;;;;;;5.10;2.25;;;26.60;38.00;;;;;;5032458;28;20051;-72
2022/08/10 09:40:30;;;;;;;8.73;2.95;;;26.70;38.20;;;;;;5032539;28;20048;-69
2022/08/10 09:43:10;;;;;;;5.78;2.67;;;26.80;37.80;;;;;;5032418;28;20032;-70
2022/08/10 09:45:57;;;;;;;10.95;3.25;;;26.80;37.40;;;;;;5032522;28;20482;-72
2022/08/10 09:48:30;;;;;;;10.70;2.15;;;26.90;37.50;;;;;;5031993;28;20044;-71
2022/08/10 09:51:33;;;;;;;6.70;2.00;;;27.00;37.20;;;;;;5032431;28;20447;-70
2022/08/10 09:54:31;;;;;;;5.20;2.17;;;27.10;37.50;;;;;;5039798;28;20029;-69
2022/08/10 09:57:23;;;;;;;4.63;2.47;;;27.10;37.40;;;;;;5034173;28;20429;-71
2022/08/10 10:00:08;;;;;;;4.70;1.67;;;27.30;36.90;;;;;;5052226;28;20378;-72
2022/08/10 10:02:43;;;;;;;5.30;2.45;;;27.30;36.60;;;;;;5037261;28;20022;-71
2022/08/10 10:05:39;;;;;;;4.03;1.95;;;27.50;36.40;;;;;;5031898;28;20029;-70
2022/08/10 10:08:13;;;;;;;5.30;2.28;;;27.60;36.80;;;;;;4994884;28;20506;-69
2022/08/10 10:10:53;;;;;;;5.15;2.25;;;27.70;36.00;;;;;;5013845;28;20029;-71
2022/08/10 10:13:56;;;;;;;9.93;2.40;;;27.80;36.20;;;;;;5016714;28;20022;-71
2022/08/10 10:16:48;;;;;;;5.65;2.15;;;28.00;36.20;;;;;;4976077;28;20384;-72
2022/08/10 10:19:25;;;;;;;7.40;2.92;;;28.10;35.60;;;;;;5016273;28;20479;-69
2022/08/10 10:22:07;;;;;;;4.00;1.80;;;28.30;35.50;;;;;;4996523;28;20038;-71
2022/08/10 10:24:46;;;;;;;5.22;1.80;;;28.40;35.90;;;;;;5023450;28;20026;-70
2022/08/10 10:27:30;;;;;;;6.03;2.17;;;28.60;35.90;;;;;;5016210;28;20034;-69
2022/08/10 10:30:09;;;;;;;3.58;2.28;;;28.70;35.50;;;;;;5031247;28;20365;-69
2022/08/10 10:32:52;;;;;;;6.97;2.78;;;28.90;35.10;;;;;;5016069;28;20100;-70
2022/08/10 10:35:32;;;;;;;8.30;2.30;;;28.90;34.90;;;;;;5015979;28;20113;-70
2022/08/10 10:38:00;;;;;;;6.18;2.80;;;29.00;34.40;;;;;;5015876;28;20029;-68
2022/08/10 10:40:31;;;;;;;12.00;3.53;;;29.00;34.00;;;;;;5015178;28;20025;-69
2022/08/10 10:43:24;;;;;;;8.73;2.53;;;29.00;33.80;;;;;;5015637;28;20034;-70
2022/08/10 10:46:14;;;;;;;4.80;1.75;;;28.90;34.30;;;;;;5015788;28;20026;-70
2022/08/10 10:49:09;;;;;;;7.22;2.70;;;28.90;34.80;;;;;;5015637;28;20010;-72
2022/08/10 10:52:01;;;;;;;3.70;2.35;;;28.90;34.90;;;;;;5015665;28;20026;-70
2022/08/10 10:54:51;;;;;;;5.00;2.15;;;28.80;34.80;;;;;;5024887;28;20045;-69
2022/08/10 10:57:28;;;;;;;6.45;2.33;;;28.80;34.80;;;;;;5030849;28;20029;-71
2022/08/10 11:00:09;;;;;;;10.05;2.17;;;28.70;34.90;;;;;;4999825;28;20010;-68
2022/08/10 11:03:02;;;;;;;5.72;2.03;;;28.60;35.10;;;;;;5015377;28;20053;-68
2022/08/10 11:05:53;;;;;;;3.38;1.90;;;28.60;35.10;;;;;;5015459;28;20153;-68
2022/08/10 11:08:24;;;;;;;3.17;1.88;;;28.50;35.10;;;;;;5015452;28;20049;-69
2022/08/10 11:11:31;;;;;;;6.07;1.90;;;28.50;35.00;;;;;;5015385;28;20022;-71
2022/08/10 11:13:59;;;;;;;4.28;2.30;;;28.50;35.40;;;;;;4993333;28;20081;-69
2022/08/10 11:16:46;;;;;;;4.57;2.30;;;28.40;35.20;;;;;;4983317;28;20043;-71
2022/08/10 11:19:27;;;;;;;5.57;2.42;;;28.40;35.00;;;;;;4974048;28;20093;-70
2022/08/10 11:21:56;;;;;;;2.53;1.73;;;28.40;34.60;;;;;;4956606;28;20146;-68
2022/08/10 11:24:38;;;;;;;2.22;1.52;;;28.40;35.30;;;;;;4983358;28;20062;-70
2022/08/10 11:27:37;;;;;;;6.90;2.58;;;28.40;35.10;;;;;;4993129;28;20102;-69
2022/08/10 11:30:09;;;;;;;2.88;1.90;;;28.40;35.10;;;;;;4993115;28;20121;-68
2022/08/10 11:32:50;;;;;;;5.75;2.40;;;28.40;35.40;;;;;;4988752;28;20081;-71
2022/08/10 11:35:29;;;;;;;2.50;1.92;;;28.50;34.90;;;;;;4993117;28;20030;-69
2022/08/10 11:38:07;;;;;;;1.77;1.60;;;28.50;34.70;;;;;;4993979;28;20027;-69
2022/08/10 11:40:59;;;;;;;7.53;1.67;;;28.50;34.50;;;;;;4993213;28;20038;-71
2022/08/10 11:43:28;;;;;;;3.15;1.92;;;28.50;34.80;;;;;;4982840;28;20054;-70
2022/08/10 11:46:11;;;;;;;4.18;1.67;;;28.60;34.70;;;;;;4992966;28;20058;-71
2022/08/10 11:48:48;;;;;;;2.10;1.60;;;28.60;34.00;;;;;;4992638;28;20042;-71
2022/08/10 11:51:44;;;;;;;3.20;1.65;;;28.60;33.30;;;;;;5014703;28;20054;-70
2022/08/10 11:54:29;;;;;;;4.10;1.45;;;28.60;33.80;;;;;;5015473;28;20025;-71
2022/08/10 11:56:59;;;;;;;3.90;1.67;;;28.70;34.10;;;;;;5012968;28;20029;-71
2022/08/10 12:02:14;;;;;;;1.98;1.33;;;28.80;33.00;;;;;;5014528;28;20076;-72
2022/08/10 12:04:48;;;;;;;7.28;1.52;;;28.80;32.60;;;;;;5013714;28;20018;-70
2022/08/10 12:07:15;;;;;;;;;;;28.80;32.20;;;;;;5014786;28;20057;-69
2022/08/10 12:09:41;;;;;;;2.22;1.55;;;28.90;33.40;;;;;;5014302;28;20325;-70
2022/08/10 12:12:08;;;;;;;1.80;1.60;;;29.00;32.00;;;;;;5014110;28;20029;-68
2022/08/10 12:14:42;;;;;;;3.95;1.60;;;29.00;31.20;;;;;;5014120;28;20026;-71
2022/08/10 12:17:21;;;;;;;2.90;1.58;;;29.00;30.80;;;;;;5014185;28;20490;-71
2022/08/10 12:20:03;;;;;;;2.88;1.70;;;29.10;30.40;;;;;;5018426;28;20053;-71
2022/08/10 12:22:52;;;;;;;5.15;1.83;;;29.20;31.00;;;;;;5033241;28;20029;-71
2022/08/10 12:25:50;;;;;;;9.30;1.80;;;29.20;30.10;;;;;;5032552;28;20095;-69
2022/08/10 12:28:30;;;;;;;3.17;1.30;;;29.30;30.00;;;;;;5033448;28;20382;-69
2022/08/10 12:30:58;;;;;;;2.33;1.65;;;29.40;30.40;;;;;;5053539;28;20024;-71
2022/08/10 12:33:31;;;;;;;4.47;1.60;;;29.50;29.90;;;;;;5035434;28;20029;-72
2022/08/10 12:36:03;;;;;;;2.17;1.63;;;29.50;29.20;;;;;;5053429;28;20386;-71
2022/08/10 12:38:35;;;;;;;2.08;1.38;;;29.50;28.60;;;;;;5049897;28;20025;-70
2022/08/10 12:41:06;;;;;;;6.93;2.13;;;29.50;28.50;;;;;;5015019;28;20029;-70
2022/08/10 12:43:40;;;;;;;4.72;1.50;;;29.50;27.00;;;;;;5013639;28;20033;-70
2022/08/10 12:46:19;;;;;;;5.10;1.75;;;29.50;27.20;;;;;;5013614;28;20022;-69
2022/08/10 12:49:27;;;;;;;3.00;1.40;;;29.50;27.20;;;;;;5013509;28;20037;-70
2022/08/10 12:52:05;;;;;;;5.13;1.75;;;29.50;28.10;;;;;;5013515;28;20029;-70
2022/08/10 12:54:35;;;;;;;5.93;1.75;;;29.60;27.40;;;;;;5039377;28;20032;-71
2022/08/10 12:57:07;;;;;;;2.72;1.75;;;29.70;27.10;;;;;;5035715;28;20048;-69
2022/08/10 12:59:37;;;;;;;3.95;1.75;;;29.70;27.80;;;;;;5031838;28;20026;-70
2022/08/10 13:02:04;;;;;;;2.00;1.60;;;29.70;27.10;;;;;;5032765;28;20063;-71
2022/08/10 13:04:33;;;;;;;2.20;1.70;;;29.80;27.70;;;;;;5032938;28;20497;-70
2022/08/10 13:07:00;;;;;;;2.75;1.48;;;29.90;26.80;;;;;;5032867;28;20452;-69
2022/08/10 13:09:27;;;;;;;1.95;1.48;;;29.90;27.50;;;;;;5032851;28;20545;-70
2022/08/10 13:12:13;;;;;;;2.13;1.38;;;30.00;27.00;;;;;;5031528;28;20025;-71
2022/08/10 13:14:51;;;;;;;2.42;1.30;;;30.10;27.20;;;;;;5032421;28;20037;-69
2022/08/10 13:17:29;;;;;;;1.70;1.50;;;30.10;26.50;;;;;;5033110;28;20017;-68
2022/08/10 13:19:58;;;;;;;2.70;1.50;;;30.20;26.80;;;;;;5011493;28;20553;-71
2022/08/10 13:22:29;;;;;;;2.50;1.90;;;30.30;26.20;;;;;;5012831;28;20128;-69